createdAt,value
2023-04-01T00:01:27.129Z,70.88
2023-04-01T00:03:55.780Z,71.06
2023-04-01T00:06:24.371Z,70.98
2023-04-01T00:08:52.252Z,70.94
2023-04-01T00:11:20.845Z,71.06
2023-04-01T00:13:49.313Z,70.99
2023-04-01T00:16:22.229Z,70.89
2023-04-01T00:18:51.697Z,71.10
2023-04-01T00:21:21.663Z,71.02
2023-04-01T00:23:51.033Z,71.12
2023-04-01T00:26:22.035Z,71.11
2023-04-01T00:28:51.048Z,71.10
2023-04-01T00:31:19.861Z,71.07
2023-04-01T00:33:49.052Z,71.19
2023-04-01T00:36:22.610Z,71.43
2023-04-01T00:38:51.433Z,71.41
2023-04-01T00:41:22.364Z,71.28
2023-04-01T00:43:53.013Z,71.37
2023-04-01T00:46:20.885Z,71.27
2023-04-01T00:48:53.533Z,71.33
2023-04-01T00:51:31.693Z,71.40
2023-04-01T00:54:02.851Z,71.36
2023-04-01T00:56:38.514Z,71.45
2023-04-01T00:59:11.945Z,71.40
2023-04-01T01:01:40.080Z,71.30
2023-04-01T01:04:08.512Z,71.51
2023-04-01T01:06:50.536Z,71.43
2023-04-01T01:09:27.667Z,71.44
2023-04-01T01:12:20.465Z,71.53
2023-04-01T01:15:06.343Z,71.54
2023-04-01T01:18:06.489Z,71.55
2023-04-01T01:21:21.089Z,71.77
2023-04-01T01:24:10.554Z,71.53
2023-04-01T01:27:06.529Z,71.45
2023-04-01T01:29:46.748Z,71.58
2023-04-01T01:32:50.653Z,71.53
2023-04-01T01:35:23.928Z,71.56
2023-04-01T01:38:04.086Z,71.64
2023-04-01T01:40:34.863Z,71.59
2023-04-01T01:43:10.469Z,71.48
2023-04-01T01:45:47.740Z,71.48
2023-04-01T01:48:17.568Z,71.64
2023-04-01T01:50:47.676Z,71.62
2023-04-01T01:53:16.467Z,71.72
2023-04-01T01:55:47.762Z,71.73
2023-04-01T01:58:43.526Z,71.85
2023-04-01T02:01:18.474Z,71.68
2023-04-01T02:03:48.040Z,71.71
2023-04-01T02:06:19.911Z,71.78
2023-04-01T02:09:02.243Z,71.83
2023-04-01T02:11:54.024Z,71.84
2023-04-01T02:14:37.576Z,71.88
2023-04-01T02:17:11.131Z,71.95
2023-04-01T02:19:40.820Z,71.84
2023-04-01T02:22:14.056Z,72.00
2023-04-01T02:24:43.569Z,71.93
2023-04-01T02:27:12.222Z,71.82
2023-04-01T02:29:42.556Z,71.92
2023-04-01T02:32:11.802Z,71.88
2023-04-01T02:34:40.221Z,71.77
2023-04-01T02:37:09.169Z,71.93
2023-04-01T02:39:37.139Z,72.03
2023-04-01T02:42:06.533Z,71.86
2023-04-01T02:44:34.429Z,71.95
2023-04-01T02:47:02.300Z,72.15
2023-04-01T02:49:30.654Z,71.96
2023-04-01T02:51:58.622Z,72.04
2023-04-01T02:54:26.496Z,72.07
2023-04-01T02:56:54.487Z,72.06
2023-04-01T02:59:22.314Z,71.98
2023-04-01T03:01:50.189Z,72.08
2023-04-01T03:04:18.531Z,72.15
2023-04-01T03:06:46.378Z,72.21
2023-04-01T03:09:14.240Z,72.13
2023-04-01T03:11:42.080Z,72.14
2023-04-01T03:14:09.913Z,72.07
2023-04-01T03:16:37.800Z,72.10
2023-04-01T03:19:06.309Z,72.04
2023-04-01T03:21:34.186Z,72.09
2023-04-01T03:24:02.799Z,72.15
2023-04-01T03:26:30.804Z,72.10
2023-04-01T03:28:58.631Z,72.18
2023-04-01T03:31:27.139Z,72.13
2023-04-01T03:33:55.820Z,72.05
2023-04-01T03:36:23.820Z,72.03
2023-04-01T03:38:51.724Z,72.09
2023-04-01T03:41:20.688Z,72.07
2023-04-01T03:43:48.488Z,72.12
2023-04-01T03:46:20.892Z,72.06
2023-04-01T03:48:49.235Z,72.13
2023-04-01T03:51:17.075Z,72.08
2023-04-01T03:53:44.883Z,72.09
2023-04-01T03:56:13.003Z,72.10
2023-04-01T03:58:40.920Z,72.10
2023-04-01T04:01:17.180Z,72.12
2023-04-01T04:03:45.654Z,72.12
2023-04-01T04:06:18.327Z,72.08
2023-04-01T04:08:46.382Z,72.07
2023-04-01T04:11:14.522Z,72.07
2023-04-01T04:13:43.412Z,72.08
2023-04-01T04:16:12.374Z,72.09
2023-04-01T04:18:44.275Z,72.07
2023-04-01T04:21:16.561Z,72.09
2023-04-01T04:23:44.853Z,72.16
2023-04-01T04:26:15.839Z,72.10
2023-04-01T04:28:43.836Z,72.17
2023-04-01T04:31:12.784Z,72.12
2023-04-01T04:33:40.676Z,72.13
2023-04-01T04:36:09.086Z,72.08
2023-04-01T04:38:37.513Z,72.15
2023-04-01T04:41:13.843Z,72.17
2023-04-01T04:43:42.589Z,72.15
2023-04-01T04:46:11.748Z,72.15
2023-04-01T04:48:40.495Z,72.14
2023-04-01T04:51:08.323Z,72.15
2023-04-01T04:53:36.126Z,72.14
2023-04-01T04:56:04.057Z,72.05
2023-04-01T04:58:31.878Z,72.24
2023-04-01T05:01:00.707Z,72.26
2023-04-01T05:03:29.119Z,72.12
2023-04-01T05:05:57.126Z,72.19
2023-04-01T05:08:25.182Z,72.20
2023-04-01T05:10:52.981Z,72.10
2023-04-01T05:13:20.898Z,72.10
2023-04-01T05:15:49.353Z,72.12
2023-04-01T05:18:17.857Z,72.09
2023-04-01T05:20:50.875Z,72.09
2023-04-01T05:23:18.909Z,72.03
2023-04-01T05:25:47.099Z,72.13
2023-04-01T05:28:15.081Z,72.22
2023-04-01T05:30:45.175Z,72.15
2023-04-01T05:33:14.604Z,72.14
2023-04-01T05:35:42.708Z,72.18
2023-04-01T05:38:10.655Z,72.16
2023-04-01T05:40:38.446Z,72.07
2023-04-01T05:43:06.410Z,72.17
2023-04-01T05:45:36.063Z,72.11
2023-04-01T05:48:04.644Z,72.11
2023-04-01T05:50:32.607Z,72.07
2023-04-01T05:53:00.435Z,72.12
2023-04-01T05:55:28.531Z,72.03
2023-04-01T05:57:56.353Z,72.06
2023-04-01T06:00:24.552Z,72.13
2023-04-01T06:02:53.433Z,72.01
2023-04-01T06:05:24.203Z,72.01
2023-04-01T06:07:59.004Z,71.99
2023-04-01T06:10:44.692Z,71.97
2023-04-01T06:13:28.082Z,71.94
2023-04-01T06:16:31.469Z,71.94
2023-04-01T06:19:06.646Z,71.57
2023-04-01T06:21:52.865Z,71.72
2023-04-01T06:24:24.102Z,71.44
2023-04-01T06:27:02.297Z,71.59
2023-04-01T06:30:04.462Z,71.36
2023-04-01T06:32:42.168Z,71.53
2023-04-01T06:35:22.054Z,71.15
2023-04-01T06:38:14.839Z,71.02
2023-04-01T06:41:09.090Z,71.35
2023-04-01T06:44:27.997Z,71.15
2023-04-01T06:47:04.237Z,71.50
2023-04-01T06:49:50.498Z,71.12
2023-04-01T06:52:25.920Z,70.44
2023-04-01T06:54:58.820Z,70.44
2023-04-01T06:57:42.287Z,70.69
2023-04-01T07:00:30.658Z,70.71
2023-04-01T07:03:01.291Z,70.92
2023-04-01T07:05:33.510Z,69.96
2023-04-01T07:08:06.189Z,70.19
2023-04-01T07:10:55.335Z,70.03
2023-04-01T07:13:30.621Z,70.34
2023-04-01T07:16:12.244Z,69.03
2023-04-01T07:18:57.812Z,69.94
2023-04-01T07:21:37.162Z,69.73
2023-04-01T07:24:17.162Z,69.63
2023-04-01T07:26:45.847Z,68.04
2023-04-01T07:29:16.530Z,69.06
2023-04-01T07:32:15.711Z,69.14
2023-04-01T07:34:54.749Z,69.01
2023-04-01T07:37:46.594Z,69.29
2023-04-01T07:40:39.208Z,67.63
2023-04-01T07:43:31.728Z,68.27
2023-04-01T07:46:27.710Z,68.46
2023-04-01T07:49:36.539Z,69.01
2023-04-01T07:52:16.130Z,68.86
2023-04-01T07:55:08.274Z,68.20
2023-04-01T07:57:58.869Z,68.34
2023-04-01T08:00:38.579Z,68.06
2023-04-01T08:03:22.577Z,68.42
2023-04-01T08:06:00.045Z,68.26
2023-04-01T08:08:43.281Z,68.61
2023-04-01T08:11:30.519Z,68.74
2023-04-01T08:14:20.042Z,68.83
2023-04-01T08:16:57.274Z,68.82
2023-04-01T08:19:53.104Z,68.31
2023-04-01T08:22:28.741Z,68.00
2023-04-01T08:25:03.331Z,67.98
2023-04-01T08:27:46.835Z,68.25
2023-04-01T08:30:18.289Z,68.21
2023-04-01T08:33:22.226Z,68.14
2023-04-01T08:36:15.464Z,68.35
2023-04-01T08:38:58.819Z,67.48
2023-04-01T08:41:54.895Z,68.00
2023-04-01T08:44:47.459Z,67.60
2023-04-01T08:47:27.691Z,67.90
2023-04-01T08:50:12.230Z,68.21
2023-04-01T08:52:48.389Z,68.20
2023-04-01T08:55:31.798Z,67.83
2023-04-01T08:58:06.022Z,67.25
2023-04-01T09:00:52.320Z,67.17
2023-04-01T09:03:36.764Z,67.81
2023-04-01T09:06:38.707Z,67.53
2023-04-01T09:09:30.007Z,67.34
2023-04-01T09:12:17.453Z,67.36
2023-04-01T09:15:22.666Z,66.14
2023-04-01T09:18:48.457Z,66.25
2023-04-01T09:22:00.324Z,66.83
2023-04-01T09:25:00.960Z,66.70
2023-04-01T09:27:38.023Z,66.83
2023-04-01T09:30:05.899Z,66.97
2023-04-01T09:32:52.035Z,67.03
2023-04-01T09:35:26.724Z,66.84
2023-04-01T09:38:21.453Z,66.95
2023-04-01T09:40:57.086Z,65.87
2023-04-01T09:43:52.819Z,66.00
2023-04-01T09:46:33.665Z,66.40
2023-04-01T09:49:50.128Z,66.69
2023-04-01T09:52:30.496Z,65.74
2023-04-01T09:55:07.789Z,66.33
2023-04-01T09:58:23.187Z,66.60
2023-04-01T10:01:26.899Z,66.69
2023-04-01T10:03:57.412Z,66.52
2023-04-01T10:06:53.133Z,66.39
2023-04-01T10:09:52.603Z,66.20
2023-04-01T10:12:38.961Z,66.22
2023-04-01T10:15:35.250Z,66.18
2023-04-01T10:18:40.730Z,66.22
2023-04-01T10:21:33.406Z,66.04
2023-04-01T10:24:19.243Z,65.87
2023-04-01T10:26:59.410Z,66.04
2023-04-01T10:29:43.223Z,65.46
2023-04-01T10:32:31.461Z,65.69
2023-04-01T10:35:11.834Z,65.59
2023-04-01T10:37:53.104Z,65.66
2023-04-01T10:40:37.031Z,65.69
2023-04-01T10:43:11.313Z,65.82
2023-04-01T10:45:55.548Z,66.01
2023-04-01T10:48:52.333Z,65.60
2023-04-01T10:51:41.702Z,65.42
2023-04-01T10:54:16.986Z,65.04
2023-04-01T10:56:53.504Z,63.33
2023-04-01T10:59:51.951Z,62.35
2023-04-01T11:03:10.933Z,60.88
2023-04-01T11:06:01.579Z,62.85
2023-04-01T11:08:51.793Z,63.88
2023-04-01T11:11:50.256Z,63.74
2023-04-01T11:14:51.517Z,61.73
2023-04-01T11:17:51.130Z,62.70
2023-04-01T11:20:52.968Z,62.15
2023-04-01T11:23:44.006Z,61.43
2023-04-01T11:26:50.528Z,60.13
2023-04-01T11:29:33.919Z,60.61
2023-04-01T11:32:26.538Z,61.53
2023-04-01T11:35:13.656Z,62.28
2023-04-01T11:38:12.647Z,60.67
2023-04-01T11:41:03.038Z,60.30
2023-04-01T11:43:40.270Z,60.27
2023-04-01T11:46:28.703Z,60.42
2023-04-01T11:49:24.355Z,60.13
2023-04-01T11:52:06.928Z,59.63
2023-04-01T11:54:38.260Z,60.39
2023-04-01T11:57:18.363Z,60.61
2023-04-01T12:00:23.520Z,59.69
2023-04-01T12:03:19.988Z,57.95
2023-04-01T12:05:51.553Z,58.33
2023-04-01T12:08:44.492Z,59.16
2023-04-01T12:11:21.223Z,59.83
2023-04-01T12:14:34.870Z,60.25
2023-04-01T12:17:15.434Z,59.93
2023-04-01T12:20:03.147Z,59.87
2023-04-01T12:22:58.626Z,58.83
2023-04-01T12:26:04.895Z,58.94
2023-04-01T12:28:45.774Z,57.58
2023-04-01T12:31:46.817Z,58.85
2023-04-01T12:34:32.771Z,59.28
2023-04-01T12:37:10.607Z,58.91
2023-04-01T12:39:59.656Z,58.53
2023-04-01T12:42:53.272Z,58.40
2023-04-01T12:45:31.741Z,58.19
2023-04-01T12:48:03.277Z,57.28
2023-04-01T12:50:50.910Z,56.60
2023-04-01T12:53:18.641Z,57.39
2023-04-01T12:55:51.695Z,57.04
2023-04-01T12:58:38.943Z,56.82
2023-04-01T13:01:36.050Z,57.05
2023-04-01T13:04:04.014Z,57.51
2023-04-01T13:07:13.096Z,57.75
2023-04-01T13:10:12.113Z,57.60
2023-04-01T13:12:46.607Z,57.06
2023-04-01T13:15:24.139Z,57.34
2023-04-01T13:18:03.553Z,57.38
2023-04-01T13:20:44.186Z,57.14
2023-04-01T13:23:37.412Z,57.55
2023-04-01T13:26:19.983Z,57.09
2023-04-01T13:28:59.944Z,57.14
2023-04-01T13:31:48.975Z,57.33
2023-04-01T13:34:29.449Z,57.46
2023-04-01T13:37:19.255Z,57.73
2023-04-01T13:40:03.831Z,57.96
2023-04-01T13:42:46.365Z,57.96
2023-04-01T13:45:44.394Z,57.76
2023-04-01T13:48:43.421Z,58.14
2023-04-01T13:51:49.436Z,58.22
2023-04-01T13:54:40.165Z,57.63
2023-04-01T13:57:46.328Z,57.93
2023-04-01T14:00:29.452Z,58.15
2023-04-01T14:03:45.980Z,58.28
2023-04-01T14:06:21.313Z,57.42
2023-04-01T14:09:08.506Z,57.76
2023-04-01T14:11:53.007Z,57.73
2023-04-01T14:14:48.710Z,57.23
2023-04-01T14:17:52.592Z,56.88
2023-04-01T14:20:54.459Z,57.36
2023-04-01T14:23:37.594Z,57.75
2023-04-01T14:26:23.269Z,57.20
2023-04-01T14:29:32.224Z,57.86
2023-04-01T14:36:30.482Z,56.72
2023-04-01T14:39:36.641Z,56.44
2023-04-01T14:42:46.653Z,56.95
2023-04-01T14:45:54.218Z,57.01
2023-04-01T14:49:37.535Z,57.22
2023-04-01T14:52:36.262Z,57.41
2023-04-01T14:55:21.526Z,57.48
2023-04-01T14:58:19.243Z,57.48
2023-04-01T15:01:05.282Z,57.76
2023-04-01T15:03:54.893Z,57.76
2023-04-01T15:06:40.151Z,57.70
2023-04-01T15:09:19.391Z,57.70
2023-04-01T15:11:59.634Z,57.63
2023-04-01T15:14:53.803Z,57.72
2023-04-01T15:17:21.518Z,57.54
2023-04-01T15:20:02.012Z,57.81
2023-04-01T15:23:22.067Z,57.61
2023-04-01T15:26:00.941Z,57.62
2023-04-01T15:29:12.644Z,57.69
2023-04-01T15:32:01.309Z,57.18
2023-04-01T15:35:11.847Z,57.21
2023-04-01T15:38:42.830Z,57.60
2023-04-01T15:42:07.907Z,57.45
2023-04-01T15:44:42.553Z,57.51
2023-04-01T15:47:57.281Z,57.41
2023-04-01T15:50:39.136Z,57.50
2023-04-01T15:53:17.923Z,57.70
2023-04-01T15:56:04.913Z,57.82
2023-04-01T15:58:37.649Z,57.78
2023-04-01T16:01:11.102Z,57.70
2023-04-01T16:03:52.061Z,57.72
2023-04-01T16:06:25.071Z,57.69
2023-04-01T16:09:08.766Z,57.64
2023-04-01T16:11:39.230Z,57.68
2023-04-01T16:14:18.440Z,57.74
2023-04-01T16:17:00.119Z,57.86
2023-04-01T16:19:26.989Z,57.87
2023-04-01T16:22:02.610Z,58.13
2023-04-01T16:24:50.573Z,58.43
2023-04-01T16:27:26.693Z,58.83
2023-04-01T16:30:18.312Z,58.83
2023-04-01T16:32:57.503Z,59.41
2023-04-01T16:35:49.105Z,59.20
2023-04-01T16:38:31.540Z,59.31
2023-04-01T16:41:08.201Z,59.20
2023-04-01T16:43:35.257Z,59.36
2023-04-01T16:46:26.820Z,59.49
2023-04-01T16:49:11.726Z,59.61
2023-04-01T16:52:03.398Z,59.78
2023-04-01T16:54:35.810Z,60.25
2023-04-01T16:57:04.999Z,60.24
2023-04-01T16:59:46.208Z,60.28
2023-04-01T17:02:21.576Z,60.69
2023-04-01T17:04:57.825Z,60.97
2023-04-01T17:07:58.467Z,60.63
2023-04-01T17:10:34.001Z,61.38
2023-04-01T17:13:20.004Z,62.27
2023-04-01T17:16:15.390Z,61.03
2023-04-01T17:19:00.822Z,61.18
2023-04-01T17:22:12.047Z,61.35
2023-04-01T17:24:57.339Z,62.17
2023-04-01T17:27:46.093Z,61.79
2023-04-01T17:30:29.530Z,62.21
2023-04-01T17:33:10.967Z,61.52
2023-04-01T17:35:44.910Z,61.29
2023-04-01T17:38:17.823Z,61.59
2023-04-01T17:41:16.456Z,61.70
2023-04-01T17:43:58.267Z,61.21
2023-04-01T17:46:42.662Z,61.33
2023-04-01T17:49:24.365Z,61.33
2023-04-01T17:52:34.724Z,61.52
2023-04-01T17:55:07.215Z,61.53
2023-04-01T17:58:01.133Z,61.68
2023-04-01T18:01:05.818Z,61.33
2023-04-01T18:04:03.410Z,61.56
2023-04-01T18:06:52.297Z,61.52
2023-04-01T18:09:39.801Z,61.62
2023-04-01T18:12:11.511Z,61.59
2023-04-01T18:14:50.591Z,61.65
2023-04-01T18:17:24.229Z,61.79
2023-04-01T18:20:02.710Z,62.00
2023-04-01T18:23:02.990Z,62.03
2023-04-01T18:25:37.673Z,62.29
2023-04-01T18:28:39.043Z,62.04
2023-04-01T18:31:11.798Z,62.49
2023-04-01T18:34:15.159Z,62.27
2023-04-01T18:37:04.932Z,62.28
2023-04-01T18:39:41.034Z,62.41
2023-04-01T18:42:41.646Z,62.43
2023-04-01T18:45:23.693Z,62.44
2023-04-01T18:48:08.845Z,62.62
2023-04-01T18:50:41.532Z,62.74
2023-04-01T18:53:30.402Z,62.72
2023-04-01T18:56:01.861Z,62.76
2023-04-01T18:58:51.801Z,63.01
2023-04-01T19:01:38.417Z,63.01
2023-04-01T19:04:11.774Z,63.03
2023-04-01T19:06:48.724Z,62.95
2023-04-01T19:09:23.604Z,63.04
2023-04-01T19:12:04.635Z,63.01
2023-04-01T19:15:07.768Z,63.06
2023-04-01T19:17:58.901Z,63.29
2023-04-01T19:20:34.847Z,63.23
2023-04-01T19:23:40.319Z,63.24
2023-04-01T19:26:15.514Z,63.38
2023-04-01T19:28:51.719Z,63.49
2023-04-01T19:31:18.154Z,63.48
2023-04-01T19:34:22.458Z,63.58
2023-04-01T19:36:57.948Z,63.70
2023-04-01T19:39:56.265Z,63.69
2023-04-01T19:42:41.536Z,63.91
2023-04-01T19:45:11.875Z,63.92
2023-04-01T19:47:56.917Z,63.94
2023-04-01T19:50:47.015Z,64.12
2023-04-01T19:53:25.858Z,64.23
2023-04-01T19:56:25.848Z,64.20
2023-04-01T19:58:57.672Z,64.22
2023-04-01T20:01:51.478Z,64.41
2023-04-01T20:04:33.374Z,64.57
2023-04-01T20:07:32.231Z,64.56
2023-04-01T20:10:20.412Z,64.57
2023-04-01T20:13:13.871Z,64.68
2023-04-01T20:15:45.044Z,64.65
2023-04-01T20:18:20.160Z,64.82
2023-04-01T20:21:01.028Z,65.11
2023-04-01T20:23:47.032Z,64.94
2023-04-01T20:26:19.891Z,65.02
2023-04-01T20:29:12.693Z,65.32
2023-04-01T20:31:45.762Z,65.25
2023-04-01T20:34:19.810Z,65.38
2023-04-01T20:37:12.854Z,65.52
2023-04-01T20:40:10.350Z,65.50
2023-04-01T20:43:11.503Z,65.46
2023-04-01T20:45:56.759Z,65.69
2023-04-01T20:48:38.689Z,65.49
2023-04-01T20:51:07.960Z,65.76
2023-04-01T20:54:25.452Z,65.75
2023-04-01T20:57:27.330Z,65.74
2023-04-01T21:00:33.218Z,66.00
2023-04-01T21:03:13.678Z,65.89
2023-04-01T21:06:12.588Z,65.80
2023-04-01T21:09:22.815Z,65.84
2023-04-01T21:12:07.901Z,66.05
2023-04-01T21:15:00.293Z,66.17
2023-04-01T21:17:44.868Z,66.16
2023-04-01T21:20:23.606Z,66.19
2023-04-01T21:22:50.587Z,66.27
2023-04-01T21:25:23.922Z,66.44
2023-04-01T21:28:22.870Z,66.62
2023-04-01T21:31:23.937Z,66.78
2023-04-01T21:33:59.180Z,66.79
2023-04-01T21:36:45.030Z,66.87
2023-04-01T21:39:14.204Z,67.17
2023-04-01T21:41:50.151Z,66.82
2023-04-01T21:44:51.690Z,66.85
2023-04-01T21:47:23.995Z,67.03
2023-04-01T21:50:31.111Z,67.03
2023-04-01T21:53:27.321Z,67.29
2023-04-01T21:56:16.060Z,67.14
2023-04-01T21:59:05.870Z,67.45
2023-04-01T22:01:35.126Z,67.40
2023-04-01T22:04:20.102Z,67.57
2023-04-01T22:06:54.293Z,67.34
2023-04-01T22:09:33.204Z,67.41
2023-04-01T22:12:08.319Z,67.87
2023-04-01T22:15:01.139Z,67.49
2023-04-01T22:17:33.482Z,67.89
2023-04-01T22:20:23.551Z,67.91
2023-04-01T22:23:17.201Z,67.90
2023-04-01T22:26:00.303Z,67.74
2023-04-01T22:28:43.108Z,67.75
2023-04-01T22:31:14.527Z,67.97
2023-04-01T22:33:53.592Z,67.91
2023-04-01T22:36:19.975Z,67.94
2023-04-01T22:39:06.432Z,67.91
2023-04-01T22:42:08.522Z,68.20
2023-04-01T22:44:53.632Z,68.29
2023-04-01T22:47:39.614Z,68.54
2023-04-01T22:50:28.624Z,68.23
2023-04-01T22:53:07.256Z,68.21
2023-04-01T22:55:38.733Z,68.51
2023-04-01T22:58:31.236Z,68.46
2023-04-01T23:01:08.430Z,68.35
2023-04-01T23:03:49.367Z,68.55
2023-04-01T23:06:33.917Z,68.54
2023-04-01T23:09:34.818Z,68.62
2023-04-01T23:12:10.476Z,68.80
2023-04-01T23:14:48.419Z,68.68
2023-04-01T23:17:20.793Z,68.71
2023-04-01T23:20:12.887Z,68.57
2023-04-01T23:22:57.458Z,68.70
2023-04-01T23:26:01.678Z,68.74
2023-04-01T23:28:45.366Z,68.77
2023-04-01T23:31:30.391Z,68.84
2023-04-01T23:34:18.206Z,68.80
2023-04-01T23:36:48.128Z,68.93
2023-04-01T23:39:39.942Z,68.94
2023-04-01T23:42:20.995Z,68.96
2023-04-01T23:44:54.214Z,69.03
2023-04-01T23:47:33.413Z,68.88
2023-04-01T23:50:06.450Z,69.06
2023-04-01T23:52:48.217Z,69.03
2023-04-01T23:55:22.336Z,69.02
2023-04-01T23:58:06.501Z,69.11
